sensor_id;sensor_type;location;lat;lon;timestamp;pressure;altitude;pressure_sealevel;temperature;humidity
29941;BME280;16801;53.562;10.038;2022-12-18T00:00:49;102954.50;;;-3.91;83.30
29941;BME280;16801;53.562;10.038;2022-12-18T00:04:21;102944.81;;;-4.03;83.03
29941;BME280;16801;53.562;10.038;2022-12-18T00:07:42;102953.59;;;-3.92;83.45
29941;BME280;16801;53.562;10.038;2022-12-18T00:11:03;102945.69;;;-3.98;83.61
29941;BME280;16801;53.562;10.038;2022-12-18T00:14:24;102946.59;;;-3.94;83.42
29941;BME280;16801;53.562;10.038;2022-12-18T00:17:46;102949.16;;;-4.07;83.55
29941;BME280;16801;53.562;10.038;2022-12-18T00:21:09;102953.44;;;-4.25;83.73
29941;BME280;16801;53.562;10.038;2022-12-18T00:24:31;102961.25;;;-4.43;84.55
29941;BME280;16801;53.562;10.038;2022-12-18T00:27:52;102966.47;;;-4.46;84.92
29941;BME280;16801;53.562;10.038;2022-12-18T00:31:16;102960.47;;;-4.29;84.63
29941;BME280;16801;53.562;10.038;2022-12-18T00:34:37;102967.56;;;-4.13;84.37
29941;BME280;16801;53.562;10.038;2022-12-18T00:37:59;102971.97;;;-4.10;83.70
29941;BME280;16801;53.562;10.038;2022-12-18T00:41:21;102978.16;;;-4.03;83.28
29941;BME280;16801;53.562;10.038;2022-12-18T00:44:57;102970.16;;;-4.17;84.16
29941;BME280;16801;53.562;10.038;2022-12-18T00:48:18;102963.03;;;-4.39;84.90
29941;BME280;16801;53.562;10.038;2022-12-18T00:51:39;102968.28;;;-4.41;85.01
29941;BME280;16801;53.562;10.038;2022-12-18T00:55:01;102970.00;;;-4.49;84.47
29941;BME280;16801;53.562;10.038;2022-12-18T00:58:22;102976.03;;;-4.63;84.66
29941;BME280;16801;53.562;10.038;2022-12-18T01:01:43;102962.03;;;-4.58;85.66
29941;BME280;16801;53.562;10.038;2022-12-18T01:05:05;102963.88;;;-4.43;84.47
29941;BME280;16801;53.562;10.038;2022-12-18T01:08:26;102973.38;;;-4.69;84.70
29941;BME280;16801;53.562;10.038;2022-12-18T01:11:48;102988.34;;;-4.56;84.30
29941;BME280;16801;53.562;10.038;2022-12-18T01:15:10;102987.41;;;-4.63;84.61
29941;BME280;16801;53.562;10.038;2022-12-18T01:18:32;102983.03;;;-4.65;84.70
29941;BME280;16801;53.562;10.038;2022-12-18T01:21:53;102983.03;;;-4.64;84.45
29941;BME280;16801;53.562;10.038;2022-12-18T01:25:14;102980.53;;;-4.44;84.53
29941;BME280;16801;53.562;10.038;2022-12-18T01:28:38;102979.72;;;-4.39;83.16
29941;BME280;16801;53.562;10.038;2022-12-18T01:31:59;102976.94;;;-4.58;83.51
29941;BME280;16801;53.562;10.038;2022-12-18T01:35:23;102969.00;;;-4.63;83.59
29941;BME280;16801;53.562;10.038;2022-12-18T01:38:44;102974.09;;;-4.87;84.69
29941;BME280;16801;53.562;10.038;2022-12-18T01:42:09;102990.03;;;-4.67;83.96
29941;BME280;16801;53.562;10.038;2022-12-18T01:45:33;102989.28;;;-4.48;83.88
29941;BME280;16801;53.562;10.038;2022-12-18T01:48:57;102990.09;;;-4.60;82.75
29941;BME280;16801;53.562;10.038;2022-12-18T01:52:19;102991.78;;;-4.69;83.07
29941;BME280;16801;53.562;10.038;2022-12-18T01:55:43;102988.38;;;-4.52;83.46
29941;BME280;16801;53.562;10.038;2022-12-18T01:59:09;102995.44;;;-4.48;82.67
29941;BME280;16801;53.562;10.038;2022-12-18T02:02:33;102999.72;;;-4.59;82.69
29941;BME280;16801;53.562;10.038;2022-12-18T02:05:59;102999.75;;;-4.54;83.10
29941;BME280;16801;53.562;10.038;2022-12-18T02:09:26;102991.88;;;-4.57;83.07
29941;BME280;16801;53.562;10.038;2022-12-18T02:12:56;102997.94;;;-4.64;83.02
29941;BME280;16801;53.562;10.038;2022-12-18T02:16:25;102996.13;;;-4.74;83.58
29941;BME280;16801;53.562;10.038;2022-12-18T02:19:58;102997.00;;;-4.72;83.71
29941;BME280;16801;53.562;10.038;2022-12-18T02:23:34;102994.28;;;-4.83;83.88
29941;BME280;16801;53.562;10.038;2022-12-18T02:27:02;103003.06;;;-4.82;83.34
29941;BME280;16801;53.562;10.038;2022-12-18T02:30:26;103005.75;;;-4.73;83.52
29941;BME280;16801;53.562;10.038;2022-12-18T02:33:48;103003.06;;;-4.84;83.86
29941;BME280;16801;53.562;10.038;2022-12-18T02:37:15;103011.84;;;-4.80;83.52
29941;BME280;16801;53.562;10.038;2022-12-18T02:40:38;103017.09;;;-4.82;83.79
29941;BME280;16801;53.562;10.038;2022-12-18T02:44:07;103018.97;;;-4.66;83.61
29941;BME280;16801;53.562;10.038;2022-12-18T02:47:31;103009.22;;;-4.77;83.04
29941;BME280;16801;53.562;10.038;2022-12-18T02:50:59;103012.78;;;-4.72;83.03
29941;BME280;16801;53.562;10.038;2022-12-18T02:54:42;103008.59;;;-4.49;82.91
29941;BME280;16801;53.562;10.038;2022-12-18T02:58:13;103024.34;;;-4.52;82.07
29941;BME280;16801;53.562;10.038;2022-12-18T03:01:44;103028.63;;;-4.65;82.61
29941;BME280;16801;53.562;10.038;2022-12-18T03:05:13;103031.16;;;-4.78;82.55
29941;BME280;16801;53.562;10.038;2022-12-18T03:08:41;103021.28;;;-5.02;83.29
29941;BME280;16801;53.562;10.038;2022-12-18T03:12:06;103027.56;;;-4.87;83.48
29941;BME280;16801;53.562;10.038;2022-12-18T03:15:45;103015.13;;;-5.06;83.55
29941;BME280;16801;53.562;10.038;2022-12-18T03:19:11;103030.84;;;-5.10;83.36
29941;BME280;16801;53.562;10.038;2022-12-18T03:22:35;103028.06;;;-5.27;84.43
29941;BME280;16801;53.562;10.038;2022-12-18T03:26:02;103021.06;;;-5.28;84.03
29941;BME280;16801;53.562;10.038;2022-12-18T03:29:28;103025.38;;;-5.30;84.26
29941;BME280;16801;53.562;10.038;2022-12-18T03:32:58;103029.06;;;-5.16;84.08
29941;BME280;16801;53.562;10.038;2022-12-18T03:36:24;103029.91;;;-5.18;84.05
29941;BME280;16801;53.562;10.038;2022-12-18T03:39:46;103029.91;;;-5.18;83.64
29941;BME280;16801;53.562;10.038;2022-12-18T03:43:10;103033.19;;;-5.39;84.51
29941;BME280;16801;53.562;10.038;2022-12-18T03:46:43;103028.72;;;-5.46;84.44
29941;BME280;16801;53.562;10.038;2022-12-18T03:50:11;103027.94;;;-5.39;84.69
29941;BME280;16801;53.562;10.038;2022-12-18T03:53:42;103021.00;;;-5.31;84.53
29941;BME280;16801;53.562;10.038;2022-12-18T03:57:09;103022.13;;;-5.08;83.57
29941;BME280;16801;53.562;10.038;2022-12-18T04:00:33;103017.69;;;-5.13;83.55
29941;BME280;16801;53.562;10.038;2022-12-18T04:04:01;103018.59;;;-5.08;82.90
29941;BME280;16801;53.562;10.038;2022-12-18T04:07:27;103024.78;;;-5.03;82.83
29941;BME280;16801;53.562;10.038;2022-12-18T04:10:51;103023.97;;;-4.98;82.75
29941;BME280;16801;53.562;10.038;2022-12-18T04:14:14;103024.66;;;-5.17;82.67
29941;BME280;16801;53.562;10.038;2022-12-18T04:17:35;103025.47;;;-5.21;82.92
29941;BME280;16801;53.562;10.038;2022-12-18T04:20:57;103026.38;;;-5.17;83.48
29941;BME280;16801;53.562;10.038;2022-12-18T04:24:18;103028.22;;;-5.10;83.35
29941;BME280;16801;53.562;10.038;2022-12-18T04:28:01;103021.06;;;-5.25;82.91
29941;BME280;16801;53.562;10.038;2022-12-18T04:31:22;103024.53;;;-5.29;83.41
29941;BME280;16801;53.562;10.038;2022-12-18T04:34:43;103032.47;;;-5.24;83.58
29941;BME280;16801;53.562;10.038;2022-12-18T04:38:05;103026.38;;;-5.17;83.58
29941;BME280;16801;53.562;10.038;2022-12-18T04:41:26;103020.09;;;-5.34;83.66
29941;BME280;16801;53.562;10.038;2022-12-18T04:44:48;103021.00;;;-5.31;83.59
29941;BME280;16801;53.562;10.038;2022-12-18T04:48:10;103013.88;;;-5.42;83.77
29941;BME280;16801;53.562;10.038;2022-12-18T04:51:30;103021.66;;;-5.50;83.36
29941;BME280;16801;53.562;10.038;2022-12-18T04:54:51;103024.56;;;-5.26;83.61
29941;BME280;16801;53.562;10.038;2022-12-18T04:58:13;103026.38;;;-5.17;82.70
29941;BME280;16801;53.562;10.038;2022-12-18T05:01:35;103030.78;;;-5.16;82.21
29941;BME280;16801;53.562;10.038;2022-12-18T05:04:56;103032.50;;;-5.20;82.71
29941;BME280;16801;53.562;10.038;2022-12-18T05:08:17;103038.38;;;-5.45;82.54
29941;BME280;16801;53.562;10.038;2022-12-18T05:11:39;103055.88;;;-5.47;83.73
29941;BME280;16801;53.562;10.038;2022-12-18T05:15:00;103051.44;;;-5.49;83.92
29941;BME280;16801;53.562;10.038;2022-12-18T05:18:25;103048.94;;;-5.37;83.42
29941;BME280;16801;53.562;10.038;2022-12-18T05:21:46;103045.63;;;-5.21;83.07
29941;BME280;16801;53.562;10.038;2022-12-18T05:25:08;103051.63;;;-5.34;82.86
29941;BME280;16801;53.562;10.038;2022-12-18T05:28:31;103055.13;;;-5.34;83.24
29941;BME280;16801;53.562;10.038;2022-12-18T05:31:52;103050.63;;;-5.44;82.46
29941;BME280;16801;53.562;10.038;2022-12-18T05:35:14;103053.34;;;-5.36;82.80
29941;BME280;16801;53.562;10.038;2022-12-18T05:38:37;103061.19;;;-5.41;83.22
29941;BME280;16801;53.562;10.038;2022-12-18T05:41:58;103067.47;;;-5.27;82.75
29941;BME280;16801;53.562;10.038;2022-12-18T05:45:19;103074.31;;;-5.41;82.68
29941;BME280;16801;53.562;10.038;2022-12-18T05:48:41;103077.63;;;-5.57;83.04
29941;BME280;16801;53.562;10.038;2022-12-18T05:52:03;103073.03;;;-5.73;84.00
29941;BME280;16801;53.562;10.038;2022-12-18T05:55:24;103069.44;;;-5.80;83.59
29941;BME280;16801;53.562;10.038;2022-12-18T05:58:46;103079.38;;;-5.56;83.63
29941;BME280;16801;53.562;10.038;2022-12-18T06:02:07;103072.84;;;-5.90;84.71
29941;BME280;16801;53.562;10.038;2022-12-18T06:05:28;103071.78;;;-6.02;84.30
29941;BME280;16801;53.562;10.038;2022-12-18T06:08:51;103068.53;;;-5.82;84.25
29941;BME280;16801;53.562;10.038;2022-12-18T06:12:12;103076.63;;;-5.67;83.72
29941;BME280;16801;53.562;10.038;2022-12-18T06:15:36;103085.34;;;-5.69;84.27
29941;BME280;16801;53.562;10.038;2022-12-18T06:18:57;103086.09;;;-5.78;83.67
29941;BME280;16801;53.562;10.038;2022-12-18T06:22:18;103079.03;;;-5.83;84.73
29941;BME280;16801;53.562;10.038;2022-12-18T06:25:41;103091.22;;;-5.88;85.24
29941;BME280;16801;53.562;10.038;2022-12-18T06:29:02;103088.75;;;-5.76;84.57
29941;BME280;16801;53.562;10.038;2022-12-18T06:32:22;103087.97;;;-5.69;83.57
29941;BME280;16801;53.562;10.038;2022-12-18T06:35:43;103102.50;;;-5.97;83.98
29941;BME280;16801;53.562;10.038;2022-12-18T06:39:04;103104.41;;;-5.84;84.60
29941;BME280;16801;53.562;10.038;2022-12-18T06:42:28;103100.88;;;-5.89;85.00
29941;BME280;16801;53.562;10.038;2022-12-18T06:45:49;103102.50;;;-5.97;84.13
29941;BME280;16801;53.562;10.038;2022-12-18T06:49:12;103101.47;;;-6.05;85.17
29941;BME280;16801;53.562;10.038;2022-12-18T06:52:33;103105.09;;;-5.98;84.70
29941;BME280;16801;53.562;10.038;2022-12-18T06:55:59;103104.09;;;-6.05;84.80
29941;BME280;16801;53.562;10.038;2022-12-18T06:59:22;103106.47;;;-6.23;84.00
29941;BME280;16801;53.562;10.038;2022-12-18T07:02:43;103096.88;;;-6.21;84.70
29941;BME280;16801;53.562;10.038;2022-12-18T07:06:04;103105.00;;;-6.03;85.41
29941;BME280;16801;53.562;10.038;2022-12-18T07:09:25;103099.91;;;-5.95;83.89
29941;BME280;16801;53.562;10.038;2022-12-18T07:12:46;103097.41;;;-5.86;84.01
29941;BME280;16801;53.562;10.038;2022-12-18T07:16:10;103106.81;;;-6.00;84.82
29941;BME280;16801;53.562;10.038;2022-12-18T07:19:31;103103.50;;;-5.89;83.39
29941;BME280;16801;53.562;10.038;2022-12-18T07:22:52;103112.84;;;-6.07;84.40
29941;BME280;16801;53.562;10.038;2022-12-18T07:26:14;103112.94;;;-6.01;84.89
29941;BME280;16801;53.562;10.038;2022-12-18T07:29:36;103122.47;;;-6.05;85.00
29941;BME280;16801;53.562;10.038;2022-12-18T07:32:58;103129.81;;;-5.84;84.02
29941;BME280;16801;53.562;10.038;2022-12-18T07:36:19;103134.09;;;-5.91;83.80
29941;BME280;16801;53.562;10.038;2022-12-18T07:39:40;103128.88;;;-5.88;84.96
29941;BME280;16801;53.562;10.038;2022-12-18T07:43:01;103136.63;;;-5.97;84.51
29941;BME280;16801;53.562;10.038;2022-12-18T07:46:22;103134.91;;;-5.95;84.78
29941;BME280;16801;53.562;10.038;2022-12-18T07:49:45;103138.66;;;-5.73;84.30
29941;BME280;16801;53.562;10.038;2022-12-18T07:53:06;103146.44;;;-5.82;83.74
29941;BME280;16801;53.562;10.038;2022-12-18T07:56:27;103149.09;;;-5.78;82.64
29941;BME280;16801;53.562;10.038;2022-12-18T07:59:47;103143.31;;;-5.55;83.03
29941;BME280;16801;53.562;10.038;2022-12-18T08:03:08;103145.00;;;-5.59;82.64
29941;BME280;16801;53.562;10.038;2022-12-18T08:06:30;103141.78;;;-5.38;82.23
29941;BME280;16801;53.562;10.038;2022-12-18T08:09:51;103131.56;;;-5.13;80.98
29941;BME280;16801;53.562;10.038;2022-12-18T08:13:12;103142.69;;;-5.36;81.01
29941;BME280;16801;53.562;10.038;2022-12-18T08:16:34;103134.00;;;-5.29;81.12
29941;BME280;16801;53.562;10.038;2022-12-18T08:19:54;103130.25;;;-5.48;80.72
29941;BME280;16801;53.562;10.038;2022-12-18T08:23:17;103128.72;;;-5.32;81.35
29941;BME280;16801;53.562;10.038;2022-12-18T08:26:38;103129.66;;;-5.27;81.97
29941;BME280;16801;53.562;10.038;2022-12-18T08:29:59;103135.84;;;-5.22;81.56
29941;BME280;16801;53.562;10.038;2022-12-18T08:33:20;103132.44;;;-4.28;78.41
29941;BME280;16801;53.562;10.038;2022-12-18T08:36:41;103122.94;;;-4.11;76.67
29941;BME280;16801;53.562;10.038;2022-12-18T08:40:04;103102.22;;;-1.21;69.91
29941;BME280;16801;53.562;10.038;2022-12-18T08:43:26;103108.47;;;0.72;61.44
29941;BME280;16801;53.562;10.038;2022-12-18T08:47:05;103119.00;;;0.81;57.64
29941;BME280;16801;53.562;10.038;2022-12-18T08:50:27;103110.94;;;1.49;55.50
29941;BME280;16801;53.562;10.038;2022-12-18T08:53:47;103108.25;;;3.33;50.70
29941;BME280;16801;53.562;10.038;2022-12-18T08:57:10;103113.69;;;4.34;48.08
29941;BME280;16801;53.562;10.038;2022-12-18T09:00:31;103096.59;;;5.30;46.58
29941;BME280;16801;53.562;10.038;2022-12-18T09:03:52;103093.09;;;6.08;47.05
29941;BME280;16801;53.562;10.038;2022-12-18T09:07:13;103102.56;;;6.18;46.62
29941;BME280;16801;53.562;10.038;2022-12-18T09:10:40;103100.06;;;7.09;42.48
29941;BME280;16801;53.562;10.038;2022-12-18T09:14:03;103094.28;;;7.84;39.36
29941;BME280;16801;53.562;10.038;2022-12-18T09:17:23;103101.63;;;7.14;40.34
29941;BME280;16801;53.562;10.038;2022-12-18T09:20:44;103109.78;;;7.11;40.28
29941;BME280;16801;53.562;10.038;2022-12-18T09:24:06;103102.91;;;8.34;36.52
29941;BME280;16801;53.562;10.038;2022-12-18T09:27:27;103104.41;;;8.20;37.15
29941;BME280;16801;53.562;10.038;2022-12-18T09:30:49;103103.81;;;7.71;37.74
29941;BME280;16801;53.562;10.038;2022-12-18T09:34:10;103108.06;;;5.33;42.09
29941;BME280;16801;53.562;10.038;2022-12-18T09:37:31;103103.44;;;6.18;42.14
29941;BME280;16801;53.562;10.038;2022-12-18T09:40:54;103108.97;;;6.86;40.26
29941;BME280;16801;53.562;10.038;2022-12-18T09:44:24;103099.94;;;6.16;40.61
29941;BME280;16801;53.562;10.038;2022-12-18T09:47:48;103102.50;;;6.69;38.99
29941;BME280;16801;53.562;10.038;2022-12-18T09:51:15;103099.59;;;7.21;38.28
29941;BME280;16801;53.562;10.038;2022-12-18T09:54:39;103097.84;;;6.49;39.82
29941;BME280;16801;53.562;10.038;2022-12-18T09:58:07;103105.13;;;5.68;43.02
29941;BME280;16801;53.562;10.038;2022-12-18T10:01:32;103115.31;;;4.05;44.85
29941;BME280;16801;53.562;10.038;2022-12-18T10:05:05;103107.22;;;6.37;41.26
29941;BME280;16801;53.562;10.038;2022-12-18T10:08:34;103107.38;;;4.98;43.00
29941;BME280;16801;53.562;10.038;2022-12-18T10:12:06;103118.75;;;5.33;43.15
29941;BME280;16801;53.562;10.038;2022-12-18T10:15:33;103107.59;;;6.27;41.31
29941;BME280;16801;53.562;10.038;2022-12-18T10:19:08;103111.03;;;4.64;43.19
29941;BME280;16801;53.562;10.038;2022-12-18T10:22:41;103110.41;;;4.85;45.14
29941;BME280;16801;53.562;10.038;2022-12-18T10:26:06;103113.53;;;6.10;41.37
29941;BME280;16801;53.562;10.038;2022-12-18T10:29:28;103114.94;;;5.96;43.37
29941;BME280;16801;53.562;10.038;2022-12-18T10:32:49;103111.31;;;6.47;41.54
29941;BME280;16801;53.562;10.038;2022-12-18T10:36:10;103117.63;;;5.68;43.78
29941;BME280;16801;53.562;10.038;2022-12-18T10:39:33;103120.22;;;6.73;40.24
29941;BME280;16801;53.562;10.038;2022-12-18T10:43:04;103125.69;;;6.70;40.81
29941;BME280;16801;53.562;10.038;2022-12-18T10:46:25;103120.53;;;5.33;43.45
29941;BME280;16801;53.562;10.038;2022-12-18T10:49:50;103122.59;;;4.33;46.58
29941;BME280;16801;53.562;10.038;2022-12-18T10:53:19;103112.22;;;4.53;46.18
29941;BME280;16801;53.562;10.038;2022-12-18T10:56:42;103105.84;;;3.94;46.91
29941;BME280;16801;53.562;10.038;2022-12-18T11:00:23;103084.00;;;5.33;45.17
29941;BME280;16801;53.562;10.038;2022-12-18T11:03:46;103094.34;;;2.79;49.25
29941;BME280;16801;53.562;10.038;2022-12-18T11:07:08;103082.84;;;3.88;48.91
29941;BME280;16801;53.562;10.038;2022-12-18T11:10:31;103105.44;;;5.03;44.88
29941;BME280;16801;53.562;10.038;2022-12-18T11:13:59;103088.84;;;5.75;44.43
29941;BME280;16801;53.562;10.038;2022-12-18T11:17:24;103092.38;;;4.63;44.39
29941;BME280;16801;53.562;10.038;2022-12-18T11:20:52;103097.28;;;4.47;45.92
29941;BME280;16801;53.562;10.038;2022-12-18T11:24:26;103101.81;;;3.03;51.07
29941;BME280;16801;53.562;10.038;2022-12-18T11:27:52;103096.41;;;2.20;51.37
29941;BME280;16801;53.562;10.038;2022-12-18T11:31:23;103089.97;;;1.85;54.04
29941;BME280;16801;53.562;10.038;2022-12-18T11:34:46;103078.78;;;2.13;53.31
29941;BME280;16801;53.562;10.038;2022-12-18T11:38:18;103080.16;;;1.90;55.08
29941;BME280;16801;53.562;10.038;2022-12-18T11:41:47;103081.91;;;1.36;55.46
29941;BME280;16801;53.562;10.038;2022-12-18T11:45:28;103073.50;;;2.58;54.47
29941;BME280;16801;53.562;10.038;2022-12-18T11:48:56;103073.47;;;4.40;49.25
29941;BME280;16801;53.562;10.038;2022-12-18T11:52:21;103059.72;;;7.12;42.91
29941;BME280;16801;53.562;10.038;2022-12-18T11:55:51;103060.63;;;8.18;40.71
29941;BME280;16801;53.562;10.038;2022-12-18T11:59:24;103054.53;;;6.38;42.88
29941;BME280;16801;53.562;10.038;2022-12-18T12:03:07;103035.16;;;6.07;44.03
29941;BME280;16801;53.562;10.038;2022-12-18T12:06:41;103039.72;;;5.51;45.27
29941;BME280;16801;53.562;10.038;2022-12-18T12:10:22;103034.25;;;4.10;48.28
29941;BME280;16801;53.562;10.038;2022-12-18T12:13:53;103032.88;;;2.04;53.70
29941;BME280;16801;53.562;10.038;2022-12-18T12:17:24;103032.78;;;2.10;54.68
29941;BME280;16801;53.562;10.038;2022-12-18T12:20:55;103045.22;;;1.04;57.76
29941;BME280;16801;53.562;10.038;2022-12-18T12:24:30;103035.44;;;0.42;60.07
29941;BME280;16801;53.562;10.038;2022-12-18T12:28:05;103028.16;;;-0.15;62.47
29941;BME280;16801;53.562;10.038;2022-12-18T12:31:46;103018.81;;;0.30;62.09
29941;BME280;16801;53.562;10.038;2022-12-18T12:38:56;102997.13;;;0.66;61.73
29941;BME280;16801;53.562;10.038;2022-12-18T12:42:28;103002.72;;;0.43;61.68
29941;BME280;16801;53.562;10.038;2022-12-18T12:46:23;102979.88;;;0.96;60.65
29941;BME280;16801;53.562;10.038;2022-12-18T12:49:46;102969.75;;;1.68;57.38
29941;BME280;16801;53.562;10.038;2022-12-18T12:53:17;102968.41;;;0.92;59.79
29941;BME280;16801;53.562;10.038;2022-12-18T12:56:45;102964.09;;;0.83;59.23
29941;BME280;16801;53.562;10.038;2022-12-18T13:00:13;102970.56;;;-0.01;62.24
29941;BME280;16801;53.562;10.038;2022-12-18T13:03:43;102974.44;;;0.42;60.42
29941;BME280;16801;53.562;10.038;2022-12-18T13:07:16;102982.84;;;0.08;62.61
29941;BME280;16801;53.562;10.038;2022-12-18T13:10:40;102970.19;;;0.31;62.52
29941;BME280;16801;53.562;10.038;2022-12-18T13:14:02;102959.19;;;0.58;61.87
29941;BME280;16801;53.562;10.038;2022-12-18T13:17:28;102958.16;;;1.72;59.39
29941;BME280;16801;53.562;10.038;2022-12-18T13:21:01;102979.81;;;0.99;60.00
29941;BME280;16801;53.562;10.038;2022-12-18T13:24:25;102978.22;;;0.25;62.60
29941;BME280;16801;53.562;10.038;2022-12-18T13:27:57;102975.75;;;0.10;63.42
29941;BME280;16801;53.562;10.038;2022-12-18T13:31:58;102963.59;;;-0.10;64.21
29941;BME280;16801;53.562;10.038;2022-12-18T13:35:41;102968.25;;;-0.30;64.95
29941;BME280;16801;53.562;10.038;2022-12-18T13:39:25;102947.25;;;-0.49;65.83
29941;BME280;16801;53.562;10.038;2022-12-18T13:42:52;102952.63;;;-0.55;66.36
29941;BME280;16801;53.562;10.038;2022-12-18T13:46:42;102944.13;;;-0.92;66.97
29941;BME280;16801;53.562;10.038;2022-12-18T13:50:10;102960.72;;;-0.72;66.67
29941;BME280;16801;53.562;10.038;2022-12-18T13:53:37;102964.56;;;-1.09;67.15
29941;BME280;16801;53.562;10.038;2022-12-18T13:57:00;102967.97;;;-0.95;67.41
29941;BME280;16801;53.562;10.038;2022-12-18T14:00:26;102977.94;;;-1.33;68.80
29941;BME280;16801;53.562;10.038;2022-12-18T14:03:48;102975.19;;;-1.17;68.88
29941;BME280;16801;53.562;10.038;2022-12-18T14:07:13;102949.66;;;-1.22;68.91
29941;BME280;16801;53.562;10.038;2022-12-18T14:10:40;102957.66;;;-1.30;69.24
29941;BME280;16801;53.562;10.038;2022-12-18T14:14:01;102955.75;;;-1.14;68.87
29941;BME280;16801;53.562;10.038;2022-12-18T14:17:26;102959.31;;;-1.15;69.34
29941;BME280;16801;53.562;10.038;2022-12-18T14:20:49;102949.88;;;-1.57;70.59
29941;BME280;16801;53.562;10.038;2022-12-18T14:24:14;102955.00;;;-1.30;70.66
29941;BME280;16801;53.562;10.038;2022-12-18T14:27:38;102950.66;;;-1.38;70.28
29941;BME280;16801;53.562;10.038;2022-12-18T14:31:02;102953.41;;;-1.58;70.81
29941;BME280;16801;53.562;10.038;2022-12-18T14:34:26;102948.34;;;-2.03;73.28
29941;BME280;16801;53.562;10.038;2022-12-18T14:37:47;102945.63;;;-1.90;73.11
29941;BME280;16801;53.562;10.038;2022-12-18T14:41:11;102942.97;;;-1.82;72.96
29941;BME280;16801;53.562;10.038;2022-12-18T14:44:34;102943.81;;;-1.74;72.00
29941;BME280;16801;53.562;10.038;2022-12-18T14:47:54;102943.88;;;-1.89;72.09
29941;BME280;16801;53.562;10.038;2022-12-18T14:51:17;102951.03;;;-2.14;73.95
29941;BME280;16801;53.562;10.038;2022-12-18T14:54:39;102954.53;;;-2.10;74.05
29941;BME280;16801;53.562;10.038;2022-12-18T14:58:00;102932.50;;;-2.00;74.15
29941;BME280;16801;53.562;10.038;2022-12-18T15:01:26;102934.28;;;-2.19;73.57
29941;BME280;16801;53.562;10.038;2022-12-18T15:04:47;102923.81;;;-2.37;74.43
29941;BME280;16801;53.562;10.038;2022-12-18T15:08:34;102910.66;;;-2.51;75.71
29941;BME280;16801;53.562;10.038;2022-12-18T15:11:56;102897.44;;;-2.49;75.13
29941;BME280;16801;53.562;10.038;2022-12-18T15:15:46;102900.06;;;-2.43;75.87
29941;BME280;16801;53.562;10.038;2022-12-18T15:19:08;102893.94;;;-2.65;75.33
29941;BME280;16801;53.562;10.038;2022-12-18T15:22:32;102900.09;;;-2.55;76.31
29941;BME280;16801;53.562;10.038;2022-12-18T15:25:56;102894.88;;;-2.78;75.95
29941;BME280;16801;53.562;10.038;2022-12-18T15:29:19;102878.13;;;-2.65;76.47
29941;BME280;16801;53.562;10.038;2022-12-18T15:32:45;102877.16;;;-2.35;75.46
29941;BME280;16801;53.562;10.038;2022-12-18T15:36:11;102888.66;;;-2.57;76.21
29941;BME280;16801;53.562;10.038;2022-12-18T15:39:32;102876.38;;;-2.67;75.67
29941;BME280;16801;53.562;10.038;2022-12-18T15:42:56;102865.72;;;-2.46;76.19
29941;BME280;16801;53.562;10.038;2022-12-18T15:46:34;102849.97;;;-2.57;76.08
29941;BME280;16801;53.562;10.038;2022-12-18T15:49:55;102851.63;;;-2.34;75.45
29941;BME280;16801;53.562;10.038;2022-12-18T15:53:17;102854.22;;;-2.27;74.98
29941;BME280;16801;53.562;10.038;2022-12-18T15:56:38;102849.91;;;-2.46;76.33
29941;BME280;16801;53.562;10.038;2022-12-18T16:00:17;102848.19;;;-2.56;76.17
29941;BME280;16801;53.562;10.038;2022-12-18T16:03:38;102844.66;;;-2.51;76.36
29941;BME280;16801;53.562;10.038;2022-12-18T16:06:59;102853.47;;;-2.59;76.76
29941;BME280;16801;53.562;10.038;2022-12-18T16:10:21;102842.88;;;-2.42;77.10
29941;BME280;16801;53.562;10.038;2022-12-18T16:13:43;102841.91;;;-2.26;76.02
29941;BME280;16801;53.562;10.038;2022-12-18T16:17:09;102841.03;;;-2.28;75.76
29941;BME280;16801;53.562;10.038;2022-12-18T16:20:30;102830.56;;;-2.54;76.78
29941;BME280;16801;53.562;10.038;2022-12-18T16:23:51;102824.44;;;-2.58;77.26
29941;BME280;16801;53.562;10.038;2022-12-18T16:27:13;102829.72;;;-2.59;76.75
29941;BME280;16801;53.562;10.038;2022-12-18T16:30:35;102824.28;;;-2.24;78.57
29941;BME280;16801;53.562;10.038;2022-12-18T16:34:13;102810.25;;;-2.34;76.48
29941;BME280;16801;53.562;10.038;2022-12-18T16:37:35;102810.31;;;-2.52;76.81
29941;BME280;16801;53.562;10.038;2022-12-18T16:40:55;102808.50;;;-2.39;77.80
29941;BME280;16801;53.562;10.038;2022-12-18T16:44:35;102806.88;;;-2.63;77.10
29941;BME280;16801;53.562;10.038;2022-12-18T16:47:56;102812.09;;;-2.54;78.03
29941;BME280;16801;53.562;10.038;2022-12-18T16:51:17;102798.00;;;-2.47;77.31
29941;BME280;16801;53.562;10.038;2022-12-18T16:54:38;102811.94;;;-2.22;77.12
29941;BME280;16801;53.562;10.038;2022-12-18T16:57:59;102804.13;;;-2.36;75.83
29941;BME280;16801;53.562;10.038;2022-12-18T17:01:21;102810.25;;;-2.32;76.12
29941;BME280;16801;53.562;10.038;2022-12-18T17:04:43;102802.34;;;-2.34;77.65
29941;BME280;16801;53.562;10.038;2022-12-18T17:08:04;102798.75;;;-2.19;76.44
29941;BME280;16801;53.562;10.038;2022-12-18T17:11:26;102782.13;;;-2.44;76.18
29941;BME280;16801;53.562;10.038;2022-12-18T17:14:47;102785.75;;;-2.63;77.78
29941;BME280;16801;53.562;10.038;2022-12-18T17:18:09;102773.38;;;-2.49;77.68
29941;BME280;16801;53.562;10.038;2022-12-18T17:21:30;102770.72;;;-2.48;77.48
29941;BME280;16801;53.562;10.038;2022-12-18T17:24:51;102772.56;;;-2.63;76.70
29941;BME280;16801;53.562;10.038;2022-12-18T17:28:12;102782.22;;;-2.59;78.00
29941;BME280;16801;53.562;10.038;2022-12-18T17:31:33;102770.78;;;-2.61;77.31
29941;BME280;16801;53.562;10.038;2022-12-18T17:34:56;102768.94;;;-2.41;76.86
29941;BME280;16801;53.562;10.038;2022-12-18T17:38:17;102776.06;;;-2.60;76.75
29941;BME280;16801;53.562;10.038;2022-12-18T17:41:38;102776.03;;;-2.54;76.23
29941;BME280;16801;53.562;10.038;2022-12-18T17:44:58;102765.41;;;-2.40;76.13